Latest Weather Observations for Hindmarsh Island

IDS60901

Issued at 4:31 pm CDT Sunday 4 December 2016 (issued every 10 minutes, with the page automatically refreshed every 10 minutes)

About weather observations | Map of Adelaide area stations | Latest observations for Adelaide area | Other Formats
Station Details ID: 023894 Name: HINDMARSH ISLAND AWS Lat: -35.52 Lon: 138.82 Height: 11.0 m
Data from the previous 72 hours. | See also: Recent months at Hindmarsh Island
Date/Time
CDT
Temp
°C
App
Temp
°C
Dew
Point
°C
Rel
Hum
%
Delta-T
°C
Wind Press
QNH
hPa
Press
MSL
hPa
Rain since
9am
mm
Dir  Spd
km/h
Gust
km/h
Spd
kts
Gust
kts
04/04:00pm 27.6 25.1 16.2 49 7.0 N 24 33 13 18 1002.6 1002.5 0.0
04/03:30pm 27.3 24.1 16.3 51 6.8 N 28 43 15 23 1002.7 1002.6 0.0
04/03:00pm 27.1 23.6 16.4 52 6.6 N 30 46 16 25 1003.0 1002.9 0.0
04/02:30pm 27.3 23.4 16.9 53 6.5 NNW 33 56 18 30 1004.3 1004.2 0.0
04/02:23pm 26.9 23.0 16.5 53 6.4 NNW 32 56 17 30 1004.4 1004.3 0.0
04/02:00pm 25.0 22.1 17.0 61 5.0 N 28 39 15 21 1005.1 1005.0 0.0
04/01:30pm 24.5 20.6 17.0 63 4.6 NNW 33 54 18 29 1005.9 1005.8 0.0
04/01:00pm 25.1 20.3 16.5 59 5.3 NNW 37 57 20 31 1006.4 1006.3 0.0
04/12:30pm 25.1 21.5 16.3 58 5.4 NNW 30 48 16 26 1007.0 1006.9 0.0
04/12:00pm 24.0 20.0 16.8 64 4.4 NNW 33 52 18 28 1006.7 1006.6 0.0
04/11:35am 24.8 21.3 16.5 60 5.1 N 30 48 16 26 1007.2 1007.1 0.0
04/11:30am 24.5 20.6 16.5 61 4.9 NNW 32 44 17 24 1007.3 1007.2 0.0
04/11:00am 23.9 19.5 16.7 64 4.4 NNW 35 54 19 29 1007.4 1007.3 0.0
04/10:30am 25.1 18.6 15.7 56 5.7 NNW 44 67 24 36 1006.8 1006.7 0.0
04/10:17am 25.5 15.7 15.5 54 6.1 NNW 61 93 33 50 1006.8 1006.7 0.0
04/10:11am 25.5 16.9 15.2 53 6.2 NNW 54 93 29 50 1005.3 1005.2 0.0
04/10:00am 26.5 19.0 13.9 45 7.5 NNW 46 85 25 46 1005.6 1005.5 0.0
04/09:52am 26.5 18.5 13.6 45 7.6 NNW 48 85 26 46 1005.9 1005.8 0.0
04/09:30am 27.5 20.1 11.1 36 9.4 NNW 41 67 22 36 1006.6 1006.5 0.0
04/09:25am 27.7 21.0 10.9 35 9.5 NNW 37 67 20 36 1006.5 1006.4 0.0
04/09:07am 26.9 21.9 11.0 37 9.0 NNW 28 46 15 25 1006.9 1006.8 0.0
04/09:00am 26.4 22.1 10.9 38 8.8 NNW 24 43 13 23 1006.6 1006.5 0.0
04/08:57am 25.4 21.4 10.4 39 8.3 NNW 22 35 12 19 1006.8 1006.7 0.0
04/08:30am 20.3 17.0 9.5 50 5.8 NNE 17 20 9 11 1006.6 1006.5 0.0
04/08:00am 19.6 15.7 9.5 52 5.4 NNE 20 26 11 14 1006.7 1006.6 0.0
04/07:30am 18.4 13.8 9.7 57 4.6 NNE 24 30 13 16 1006.1 1006.0 0.0
04/07:00am 17.7 13.1 9.8 60 4.2 NNE 24 30 13 16 1006.2 1006.1 0.0
04/06:30am 17.2 12.3 9.9 62 3.9 NNE 26 30 14 16 1006.3 1006.2 0.0
04/06:00am 16.0 12.2 9.9 67 3.2 NNE 20 24 11 13 1006.8 1006.7 0.0
04/05:30am 15.4 12.7 10.2 71 2.7 N 15 17 8 9 1007.1 1007.0 0.0
04/05:00am 14.2 12.2 10.2 77 2.1 NNE 11 15 6 8 1007.0 1006.9 0.0
04/04:30am 13.8 12.6 10.4 80 1.8 ENE 7 11 4 6 1007.2 1007.1 0.0
04/04:00am 14.0 12.7 10.0 77 2.1 NNE 7 11 4 6 1007.3 1007.2 0.0
04/03:30am 14.2 12.4 10.8 80 1.8 N 11 13 6 7 1007.7 1007.6 0.0
04/03:00am 14.3 12.1 10.9 80 1.8 N 13 17 7 9 1008.7 1008.6 0.0
04/02:30am 14.6 13.4 11.6 82 1.6 N 9 13 5 7 1008.9 1008.8 0.0
04/02:00am 14.4 13.1 11.4 82 1.6 N 9 13 5 7 1009.6 1009.5 0.0
04/01:30am 14.8 14.0 11.6 81 1.7 NW 7 9 4 5 1009.7 1009.6 0.0
04/01:00am 15.0 13.9 11.8 81 1.7 N 9 13 5 7 1010.2 1010.1 0.0
04/12:30am 15.9 15.4 12.1 78 2.1 SSE 6 7 3 4 1010.6 1010.5 0.0
04/12:00am 16.1 15.1 12.3 78 2.1 S 9 13 5 7 1010.7 1010.6 0.0
 
Date/Time
CDT
Temp
°C
App
Temp
°C
Dew
Point
°C
Rel
Hum
%
Delta-T
°C
Wind Press
QNH
hPa
Press
MSL
hPa
Rain since
9am
mm
Dir  Spd
km/h
Gust
km/h
Spd
kts
Gust
kts
03/11:30pm 16.3 14.9 12.3 77 2.2 S 11 15 6 8 1010.9 1010.8 0.0
03/11:00pm 16.3 14.8 11.9 75 2.4 SSE 11 13 6 7 1011.4 1011.3 0.0
03/10:30pm 16.3 14.4 11.9 75 2.4 S 13 15 7 8 1011.7 1011.6 0.0
03/10:00pm 16.0 14.7 11.2 73 2.6 SSE 9 11 5 6 1012.2 1012.1 0.0
03/09:30pm 16.2 14.6 11.6 74 2.5 S 11 13 6 7 1012.0 1011.9 0.0
03/09:00pm 16.6 14.7 11.7 73 2.7 SSE 13 15 7 8 1011.9 1011.8 0.0
03/08:30pm 16.9 15.3 11.4 70 3.0 S 11 15 6 8 1012.1 1012.0 0.0
03/08:00pm 17.1 14.3 11.4 69 3.1 S 17 19 9 10 1011.9 1011.8 0.0
03/07:30pm 17.6 14.6 11.9 69 3.1 S 19 22 10 12 1011.8 1011.7 0.0
03/07:00pm 18.0 14.8 12.0 68 3.3 S 20 26 11 14 1011.8 1011.7 0.0
03/06:30pm 18.7 15.5 11.3 62 4.0 S 19 24 10 13 1011.7 1011.6 0.0
03/06:00pm 18.9 15.9 10.7 59 4.4 S 17 24 9 13 1011.3 1011.2 0.0
03/05:30pm 19.1 15.2 10.9 59 4.5 SSE 22 26 12 14 1011.0 1010.9 0.0
03/05:00pm 19.5 15.4 11.5 60 4.4 S 24 30 13 16 1011.7 1011.6 0.0
03/04:30pm 20.2 15.8 11.7 58 4.7 S 26 30 14 16 1012.1 1012.0 0.0
03/04:00pm 20.0 15.0 11.0 56 4.9 S 28 32 15 17 1012.3 1012.2 0.0
03/03:30pm 20.1 15.3 11.6 58 4.7 S 28 32 15 17 1012.4 1012.4 0.0
03/03:00pm 21.0 16.1 11.3 54 5.4 SSE 28 33 15 18 1012.2 1012.1 0.0
03/02:30pm 20.2 15.3 10.0 52 5.5 SSE 26 30 14 16 1012.3 1012.2 0.0
03/02:00pm 21.2 17.3 12.1 56 5.1 SSE 24 30 13 16 1012.6 1012.6 0.0
03/01:30pm 20.3 16.0 10.7 54 5.2 SSE 24 28 13 15 1012.9 1012.9 0.0
03/01:00pm 20.5 16.2 10.6 53 5.4 SSE 24 28 13 15 1013.2 1013.2 0.0
03/12:30pm 20.4 16.3 10.2 52 5.5 SSE 22 26 12 14 1013.5 1013.5 0.0
03/12:00pm 21.2 17.6 5.1 35 7.9 ENE 13 26 7 14 1013.9 1013.9 0.0
03/11:30am 20.0 16.5 5.6 39 7.1 ENE 13 22 7 12 1014.1 1014.1 0.0
03/11:00am 19.5 15.9 6.6 43 6.5 E 15 28 8 15 1014.3 1014.3 0.0
03/10:30am 18.9 15.3 6.7 45 6.1 ESE 15 22 8 12 1014.6 1014.6 0.0
03/10:00am 18.2 14.6 6.7 47 5.7 E 15 22 8 12 1015.0 1015.0 0.0
03/09:30am 17.4 13.1 6.9 50 5.2 E 19 26 10 14 1015.2 1015.2 0.0
03/09:00am 16.7 12.9 7.4 54 4.6 E 17 24 9 13 1015.6 1015.6 0.0
03/08:30am 16.0 11.5 6.2 52 4.8 E 19 24 10 13 1015.6 1015.6 0.0
03/08:00am 14.4 10.3 6.3 58 3.9 ENE 17 24 9 13 1015.9 1015.9 0.0
03/07:30am 13.5 10.0 7.3 66 3.0 ENE 15 19 8 10 1015.5 1015.5 0.0
03/07:00am 12.1 9.8 7.6 74 2.2 NE 9 13 5 7 1015.5 1015.5 0.0
03/06:30am 10.1 7.5 6.1 76 1.8 NNE 9 9 5 5 1015.4 1015.4 0.0
03/06:00am 9.1 5.2 5.3 77 1.7 ENE 15 17 8 9 1015.2 1015.2 0.0
03/05:30am 9.0 4.7 5.4 78 1.6 ENE 17 19 9 10 1015.0 1015.0 0.0
03/05:00am 9.5 4.9 5.5 76 1.8 ENE 19 20 10 11 1014.6 1014.6 0.0
03/04:30am 9.3 5.0 5.3 76 1.8 ENE 17 19 9 10 1014.3 1014.3 0.0
03/04:00am 9.7 5.5 5.9 77 1.7 ENE 17 19 9 10 1014.4 1014.4 0.0
03/03:30am 10.6 6.5 6.2 74 2.0 ENE 17 19 9 10 1014.3 1014.3 0.0
03/03:00am 10.5 6.7 5.9 73 2.1 ENE 15 17 8 9 1014.1 1014.1 0.0
03/02:30am 10.8 7.0 5.8 71 2.3 E 15 17 8 9 1014.4 1014.4 0.0
03/02:00am 11.2 7.8 5.7 69 2.5 E 13 15 7 8 1014.8 1014.8 0.0
03/01:30am 12.3 8.9 5.9 65 3.0 E 13 17 7 9 1015.0 1015.0 0.0
03/01:00am 13.8 9.5 7.1 64 3.3 SE 19 22 10 12 1015.2 1015.2 0.0
03/12:30am 14.1 9.7 6.7 61 3.6 SE 19 24 10 13 1015.5 1015.5 0.0
03/12:00am 14.4 9.8 6.5 59 3.8 SE 20 26 11 14 1015.9 1015.9 0.0
 
Date/Time
CDT
Temp
°C
App
Temp
°C
Dew
Point
°C
Rel
Hum
%
Delta-T
°C
Wind Press
QNH
hPa
Press
MSL
hPa
Rain since
9am
mm
Dir  Spd
km/h
Gust
km/h
Spd
kts
Gust
kts
02/11:30pm 14.5 9.9 6.3 58 3.9 SE 20 26 11 14 1016.0 1016.0 0.0
02/11:00pm 14.5 9.9 6.3 58 3.9 SSE 20 26 11 14 1016.0 1016.0 0.0
02/10:30pm 14.5 9.5 6.6 59 3.8 SSE 22 26 12 14 1016.3 1016.3 0.0
02/10:00pm 14.5 9.6 7.1 61 3.6 SSE 22 28 12 15 1016.0 1016.0 0.0
02/09:30pm 14.5 9.3 7.3 62 3.5 SSE 24 28 13 15 1016.1 1016.1 0.0
02/09:00pm 14.5 10.1 7.3 62 3.5 SSE 20 26 11 14 1015.9 1015.9 0.0
02/08:30pm 14.6 9.9 7.6 63 3.5 S 22 28 12 15 1015.8 1015.8 0.0
02/08:00pm 14.9 10.0 7.0 59 3.9 SSE 22 30 12 16 1015.9 1015.9 0.0
02/07:30pm 15.7 10.8 8.4 62 3.7 SSE 24 30 13 16 1015.5 1015.5 0.0
02/07:00pm 16.3 11.5 8.8 61 3.8 S 24 32 13 17 1015.2 1015.2 0.0
02/06:30pm 16.6 11.3 8.3 58 4.2 S 26 33 14 18 1015.0 1015.0 0.0
02/06:00pm 17.0 11.4 8.9 59 4.2 S 28 37 15 20 1014.7 1014.7 0.0
02/05:30pm 17.4 12.0 9.6 60 4.1 S 28 35 15 19 1014.8 1014.8 0.0
02/05:00pm 18.1 12.9 8.7 54 4.9 S 26 33 14 18 1014.8 1014.8 0.0
02/04:30pm 18.5 13.3 9.0 54 5.0 S 26 33 14 18 1014.9 1014.9 0.0
02/04:00pm 18.2 12.5 8.5 53 5.0 S 28 33 15 18 1014.7 1014.7 0.0
02/03:30pm 18.8 13.4 9.6 55 4.9 S 28 35 15 19 1014.7 1014.7 0.0
02/03:00pm 18.6 12.6 8.8 53 5.1 S 30 35 16 19 1014.7 1014.7 0.0
02/02:30pm 18.6 12.5 9.7 56 4.7 S 32 35 17 19 1014.7 1014.7 0.0
02/02:00pm 19.2 14.5 9.4 53 5.2 S 24 33 13 18 1015.0 1015.0 0.0
02/01:30pm 18.5 13.6 10.1 58 4.5 S 26 32 14 17 1015.2 1015.2 0.0
02/01:00pm 18.7 13.5 10.3 58 4.5 S 28 35 15 19 1015.0 1015.0 0.0
02/12:30pm 19.1 13.9 10.4 57 4.7 S 28 33 15 18 1014.8 1014.8 0.0
02/12:00pm 19.2 14.2 9.7 54 5.0 S 26 32 14 17 1014.8 1014.8 0.0
02/11:30am 18.9 14.2 10.7 59 4.4 S 26 30 14 16 1014.7 1014.7 0.0
02/11:00am 18.5 14.2 10.8 61 4.2 SSW 24 28 13 15 1014.9 1014.9 0.0
02/10:30am 18.8 14.3 10.1 57 4.6 S 24 30 13 16 1014.8 1014.8 0.0
02/10:00am 18.7 14.3 10.5 59 4.4 SSW 24 30 13 16 1014.5 1014.5 0.0
02/09:30am 18.0 13.4 9.6 58 4.4 SSW 24 32 13 17 1014.4 1014.4 0.0
02/09:00am 17.8 12.9 11.4 66 3.5 S 28 35 15 19 1014.0 1014.0 0.0
02/08:30am 16.6 11.0 11.5 72 2.8 S 32 35 17 19 1013.5 1013.5 0.0
02/08:00am 16.0 11.2 11.6 75 2.4 SSW 28 32 15 17 1013.4 1013.4 0.0
02/07:30am 16.2 12.2 11.8 75 2.4 SSW 24 30 13 16 1012.9 1012.9 0.0
02/07:00am 16.0 11.3 12.0 77 2.2 S 28 33 15 18 1012.5 1012.5 0.0
02/06:30am 16.1 13.0 11.7 75 2.4 SSW 19 24 10 13 1012.2 1012.1 0.0
02/06:00am 15.9 12.7 11.1 73 2.6 SSW 19 22 10 12 1011.8 1011.7 0.0
02/05:30am 16.1 12.7 11.1 72 2.7 SSW 20 24 11 13 1011.5 1011.4 0.0
02/05:00am 15.7 11.3 10.5 71 2.7 SSW 24 30 13 16 1011.2 1011.1 0.0
02/04:30am 15.7 11.2 10.2 70 2.9 SW 24 30 13 16 1010.8 1010.7 0.0
02/04:00am 15.6 11.5 10.2 70 2.8 SSW 22 28 12 15 1010.5 1010.4 0.0
02/03:30am 15.7 11.6 10.2 70 2.9 SSW 22 28 12 15 1010.3 1010.2 0.0
02/03:00am 15.5 11.8 10.1 70 2.8 SSW 20 24 11 13 1010.0 1009.9 0.0
02/02:30am 15.3 11.8 10.1 71 2.7 SSW 19 22 10 12 1009.7 1009.6 0.0
02/02:00am 15.3 11.8 10.1 71 2.7 SSW 19 24 10 13 1009.8 1009.7 0.0
02/01:30am 15.3 11.6 10.3 72 2.6 SSW 20 24 11 13 1009.8 1009.7 0.0
02/01:00am 15.3 11.9 10.7 74 2.4 SSW 19 22 10 12 1009.8 1009.7 0.0
02/12:30am 15.3 12.3 10.7 74 2.4 SSW 17 22 9 12 1010.0 1009.9 0.0
02/12:00am 15.3 12.7 10.7 74 2.4 SSW 15 19 8 10 1009.9 1009.8 0.0
 
Date/Time
CDT
Temp
°C
App
Temp
°C
Dew
Point
°C
Rel
Hum
%
Delta-T
°C
Wind Press
QNH
hPa
Press
MSL
hPa
Rain since
9am
mm
Dir  Spd
km/h
Gust
km/h
Spd
kts
Gust
kts
01/11:30pm 15.4 12.4 10.8 74 2.4 SSW 17 22 9 12 1010.0 1009.9 0.0
01/11:00pm 15.5 11.6 10.7 73 2.5 SSW 22 26 12 14 1010.0 1009.9 0.0
01/10:30pm 15.7 11.9 11.3 75 2.4 SSW 22 28 12 15 1010.0 1009.9 0.0
01/10:00pm 15.6 12.1 11.0 74 2.5 SSW 20 26 11 14 1010.0 1009.9 0.0
01/09:30pm 15.7 12.3 11.1 74 2.5 SSW 20 26 11 14 1010.0 1009.9 0.0
01/09:00pm 15.7 11.8 10.9 73 2.6 SSW 22 26 12 14 1010.0 1009.9 0.0
01/08:30pm 15.9 10.7 10.4 70 2.9 SSW 28 32 15 17 1009.7 1009.6 0.0
01/08:00pm 16.6 11.8 11.5 72 2.8 SSW 28 33 15 18 1009.7 1009.6 0.0
01/07:30pm 16.8 11.6 11.7 72 2.8 SSW 30 37 16 20 1009.2 1009.1 0.0
01/07:00pm 17.4 11.3 11.9 70 3.0 SSW 35 41 19 22 1008.8 1008.7 0.0
01/06:30pm 18.3 11.1 13.0 71 3.0 SSW 43 50 23 27 1008.2 1008.1 0.0
01/06:00pm 19.3 12.7 12.6 65 3.8 SW 39 52 21 28 1007.7 1007.6 0.0
01/05:30pm 20.0 15.2 11.8 59 4.6 SSW 28 35 15 19 1007.5 1007.4 0.0
01/05:00pm 20.9 17.4 13.4 62 4.3 SSW 24 28 13 15 1007.3 1007.2 0.0

Latest Capital City Observations: Canberra | Sydney | Melbourne | Brisbane | Adelaide | Perth | Hobart | Darwin

Other Formats:

Comma delimited format used in spreadsheet applications
http://www.bom.gov.au/fwo/IDS60901/IDS60901.94677.axf

JavaScript Object Notation format (JSON) in row-major order
http://www.bom.gov.au/fwo/IDS60901/IDS60901.94677.json